createdAt,value
2018-11-25T00:00:07.993Z,51.4
2018-11-25T00:00:58.048Z,51.4
2018-11-25T00:01:47.531Z,51.4
2018-11-25T00:02:37.937Z,51.4
2018-11-25T00:03:27.932Z,51.4
2018-11-25T00:04:18.531Z,51.4
2018-11-25T00:05:06.959Z,51.4
2018-11-25T00:05:58.115Z,51.3
2018-11-25T00:06:48.466Z,51.3
2018-11-25T00:25:07.259Z,51.1
2018-11-25T00:25:57.909Z,51.1
2018-11-25T00:26:47.396Z,51.1
2018-11-25T00:27:38.034Z,51.1
2018-11-25T00:28:27.244Z,51.1
2018-11-25T00:29:17.882Z,51.1
2018-11-25T00:30:07.334Z,51.1
2018-11-25T00:30:58.019Z,51.1
2018-11-25T00:31:47.181Z,51.1
2018-11-25T00:32:38.047Z,51.1
2018-11-25T00:33:27.583Z,51.1
2018-11-25T00:34:17.651Z,51
2018-11-25T00:35:08.481Z,51
2018-11-25T00:35:58.291Z,51
2018-11-25T00:36:48.102Z,51
2018-11-25T00:37:38.174Z,51
2018-11-25T00:38:27.983Z,51
2018-11-25T00:39:17.460Z,51
2018-11-25T00:40:08.349Z,50.9
2018-11-25T00:40:57.845Z,50.9
2018-11-25T00:41:48.451Z,50.9
2018-11-25T00:42:38.340Z,50.9
2018-11-25T00:43:28.871Z,50.9
2018-11-25T00:44:18.603Z,50.9
2018-11-25T00:45:08.383Z,50.9
2018-11-25T00:45:58.465Z,50.9
2018-11-25T00:46:48.791Z,50.9
2018-11-25T00:47:38.825Z,50.9
2018-11-25T00:48:28.643Z,50.9
2018-11-25T00:49:18.148Z,50.9
2018-11-25T00:50:08.478Z,50.9
2018-11-25T00:50:59.058Z,50.9
2018-11-25T00:51:48.875Z,50.9
2018-11-25T00:52:38.977Z,50.8
2018-11-25T00:53:29.064Z,50.8
2018-11-25T00:54:19.603Z,50.8
2018-11-25T00:55:08.847Z,50.8
2018-11-25T00:55:59.924Z,50.8
2018-11-25T00:56:48.949Z,50.8
2018-11-25T00:57:40.144Z,50.8
2018-11-25T00:58:29.627Z,50.8
2018-11-25T00:59:19.664Z,50.8
2018-11-25T01:00:09.508Z,50.8
2018-11-25T01:01:00.033Z,50.8
2018-11-25T01:01:50.125Z,50.8
2018-11-25T01:02:40.245Z,50.8
2018-11-25T01:03:29.679Z,50.7
2018-11-25T01:04:19.997Z,50.7
2018-11-25T01:05:09.804Z,50.7
2018-11-25T01:06:00.397Z,50.7
2018-11-25T01:06:50.507Z,50.6
2018-11-25T01:07:40.256Z,50.7
2018-11-25T01:08:30.591Z,50.7
2018-11-25T01:09:20.431Z,50.6
2018-11-25T01:10:10.780Z,50.6
2018-11-25T01:11:00.496Z,50.6
2018-11-25T01:11:50.559Z,50.6
2018-11-25T01:12:40.118Z,50.6
2018-11-25T01:13:31.176Z,50.6
2018-11-25T01:14:20.727Z,50.6
2018-11-25T01:15:10.815Z,50.6
2018-11-25T01:16:00.836Z,50.6
2018-11-25T01:16:50.671Z,50.6
2018-11-25T01:17:40.696Z,50.6
2018-11-25T01:18:30.463Z,50.6
2018-11-25T01:19:21.439Z,50.6
2018-11-25T01:20:10.890Z,50.6
2018-11-25T01:21:01.199Z,50.5
2018-11-25T01:21:51.796Z,50.5
2018-11-25T01:22:41.034Z,50.5
2018-11-25T01:23:31.931Z,50.5
2018-11-25T01:24:21.733Z,50.5
2018-11-25T01:25:10.954Z,50.5
2018-11-25T01:26:01.825Z,50.4
2018-11-25T01:26:51.847Z,50.4
2018-11-25T01:27:41.956Z,50.5
2018-11-25T01:28:32.005Z,50.4
2018-11-25T01:29:21.776Z,50.4
2018-11-25T01:30:11.581Z,50.4
2018-11-25T01:31:01.663Z,50.4
2018-11-25T01:31:51.994Z,50.4
2018-11-25T01:32:41.507Z,50.4
2018-11-25T01:33:31.795Z,50.4
2018-11-25T01:34:21.872Z,50.4
2018-11-25T01:35:12.242Z,50.4
2018-11-25T01:36:02.806Z,50.4
2018-11-25T01:36:52.570Z,50.4
2018-11-25T01:37:42.110Z,50.3
2018-11-25T01:38:32.992Z,50.3
2018-11-25T01:39:22.215Z,50.3
2018-11-25T01:40:12.303Z,50.3
2018-11-25T01:41:02.066Z,50.3
2018-11-25T01:41:52.662Z,50.3
2018-11-25T01:42:43.334Z,50.3
2018-11-25T01:43:33.651Z,50.3
2018-11-25T01:44:22.274Z,50.3
2018-11-25T01:45:12.897Z,50.3
2018-11-25T01:46:02.402Z,50.3
2018-11-25T01:46:53.017Z,50.3
2018-11-25T01:47:42.794Z,50.3
2018-11-25T01:48:33.182Z,50.3
2018-11-25T01:49:24.557Z,50.3
2018-11-25T01:50:12.752Z,50.2
2018-11-25T01:51:02.578Z,50.2
2018-11-25T01:51:53.367Z,50.2
2018-11-25T01:52:43.434Z,50.2
2018-11-25T01:53:34.003Z,50.2
2018-11-25T01:54:22.989Z,50.2
2018-11-25T01:55:13.608Z,50.2
2018-11-25T01:56:03.127Z,50.2
2018-11-25T01:56:53.993Z,50.1
2018-11-25T01:57:43.534Z,50.1
2018-11-25T01:58:33.901Z,50.1
2018-11-25T01:59:24.172Z,50.1
2018-11-25T02:00:14.758Z,50.1
2018-11-25T02:01:03.739Z,50.1
2018-11-25T02:01:54.345Z,50.1
2018-11-25T02:02:43.029Z,50.1
2018-11-25T02:03:33.603Z,50.1
2018-11-25T02:04:23.686Z,50.1
2018-11-25T02:05:14.879Z,50.1
2018-11-25T02:06:04.638Z,50.1
2018-11-25T02:06:54.143Z,50.1
2018-11-25T02:07:44.221Z,50.1
2018-11-25T02:08:33.983Z,50.1
2018-11-25T02:09:24.605Z,50
2018-11-25T02:10:15.292Z,50
2018-11-25T02:11:04.421Z,50
2018-11-25T02:11:54.498Z,50
2018-11-25T02:12:45.132Z,50
2018-11-25T02:13:34.885Z,50
2018-11-25T02:14:24.963Z,49.9
2018-11-25T02:15:15.010Z,49.9
2018-11-25T02:16:05.060Z,50
2018-11-25T02:16:55.115Z,49.9
2018-11-25T02:17:45.212Z,49.9
2018-11-25T02:18:35.810Z,49.9
2018-11-25T02:19:25.025Z,49.9
2018-11-25T02:20:15.370Z,49.9
2018-11-25T02:21:05.480Z,49.9
2018-11-25T02:21:55.765Z,49.9
2018-11-25T02:22:44.997Z,49.9
2018-11-25T02:23:35.584Z,49.9
2018-11-25T02:24:25.654Z,49.9
2018-11-25T02:25:15.710Z,49.9
2018-11-25T02:26:05.784Z,49.8
2018-11-25T02:26:55.839Z,49.9
2018-11-25T02:27:45.623Z,49.8
2018-11-25T02:28:35.399Z,49.8
2018-11-25T02:29:26.577Z,49.8
2018-11-25T02:30:16.488Z,49.8
2018-11-25T02:31:05.574Z,49.8
2018-11-25T02:31:56.176Z,49.8
2018-11-25T02:32:46.239Z,49.8
2018-11-25T02:33:36.298Z,49.8
2018-11-25T02:34:26.616Z,49.8
2018-11-25T02:35:15.603Z,49.6
2018-11-25T02:36:06.491Z,49.6
2018-11-25T02:36:56.251Z,49.5
2018-11-25T02:37:46.093Z,49.4
2018-11-25T02:38:36.671Z,49.5
2018-11-25T02:39:26.716Z,49.6
2018-11-25T02:40:17.059Z,49.8
2018-11-25T02:41:05.719Z,50
2018-11-25T02:41:56.059Z,50.1
2018-11-25T02:42:47.218Z,50.4
2018-11-25T02:43:36.997Z,50.6
2018-11-25T02:44:26.783Z,50.8
2018-11-25T02:45:17.451Z,51.1
2018-11-25T02:46:07.188Z,51.3
2018-11-25T02:46:57.494Z,51.6
2018-11-25T02:47:47.642Z,51.8
2018-11-25T02:48:37.310Z,52.1
2018-11-25T02:49:27.690Z,52.3
2018-11-25T02:50:16.941Z,52.6
2018-11-25T02:51:07.266Z,52.8
2018-11-25T02:51:58.168Z,53.1
2018-11-25T02:52:47.925Z,53.3
2018-11-25T02:53:38.013Z,53.6
2018-11-25T02:54:26.660Z,53.8
2018-11-25T02:55:17.515Z,54.1
2018-11-25T02:56:07.334Z,54.3
2018-11-25T02:56:58.255Z,54.6
2018-11-25T02:57:47.687Z,54.8
2018-11-25T02:58:38.050Z,55.1
2018-11-25T02:59:27.585Z,55.4
2018-11-25T03:00:17.890Z,55.6
2018-11-25T03:01:08.574Z,55.8
2018-11-25T03:01:58.000Z,56.1
2018-11-25T03:02:49.177Z,56.3
2018-11-25T03:03:38.675Z,56.6
2018-11-25T03:04:28.734Z,56.9
2018-11-25T03:05:17.999Z,57.1
2018-11-25T03:06:08.579Z,57.3
2018-11-25T03:06:58.707Z,57.6
2018-11-25T03:07:48.767Z,57.8
2018-11-25T03:08:38.765Z,58.1
2018-11-25T03:09:28.829Z,58.4
2018-11-25T03:11:08.685Z,58.8
2018-11-25T03:11:58.999Z,59.1
2018-11-25T03:12:48.803Z,59.3
2018-11-25T03:13:38.842Z,59.6
2018-11-25T03:14:29.446Z,59.8
2018-11-25T03:15:19.042Z,59.9
2018-11-25T03:16:09.937Z,60
2018-11-25T03:16:59.353Z,60.3
2018-11-25T03:17:49.717Z,60.5
2018-11-25T03:18:40.275Z,60.6
2018-11-25T03:19:30.053Z,60.7
2018-11-25T03:20:19.373Z,60.8
2018-11-25T03:21:10.011Z,61
2018-11-25T03:22:00.251Z,61.3
2018-11-25T03:22:50.037Z,61.3
2018-11-25T03:23:39.554Z,61.4
2018-11-25T03:24:30.216Z,61.6
2018-11-25T03:25:20.519Z,61.8
2018-11-25T03:26:09.718Z,61.9
2018-11-25T03:26:59.816Z,61.9
2018-11-25T03:27:49.844Z,62
2018-11-25T03:28:40.223Z,62.3
2018-11-25T03:29:30.258Z,62.3
2018-11-25T03:30:20.321Z,62.4
2018-11-25T03:31:09.596Z,62.5
2018-11-25T03:32:00.180Z,62.7
2018-11-25T03:32:50.494Z,62.8
2018-11-25T03:33:41.074Z,62.8
2018-11-25T03:34:30.025Z,62.9
2018-11-25T03:35:20.665Z,63
2018-11-25T03:36:10.690Z,63.1
2018-11-25T03:37:01.050Z,63.1
2018-11-25T03:37:50.890Z,63.2
2018-11-25T03:38:40.877Z,63.2
2018-11-25T03:39:31.212Z,63.2
2018-11-25T03:40:20.750Z,63.2
2018-11-25T03:41:09.947Z,63.2
2018-11-25T03:42:01.152Z,63.3
2018-11-25T03:42:51.219Z,63.3
2018-11-25T03:43:41.234Z,63.2
2018-11-25T03:44:30.995Z,63.2
2018-11-25T03:45:21.702Z,63.2
2018-11-25T03:46:11.134Z,63.2
2018-11-25T03:47:01.461Z,63.2
2018-11-25T03:47:51.828Z,63.2
2018-11-25T03:48:41.817Z,63.2
2018-11-25T03:49:31.352Z,63.2
2018-11-25T03:50:21.721Z,63.2
2018-11-25T03:51:11.744Z,63.2
2018-11-25T03:52:02.080Z,63.1
2018-11-25T03:52:51.327Z,63.1
2018-11-25T03:53:42.197Z,63.1
2018-11-25T03:54:31.426Z,63.1
2018-11-25T03:55:22.044Z,63.1
2018-11-25T03:56:11.816Z,63.1
2018-11-25T03:57:01.890Z,63.1
2018-11-25T03:57:53.031Z,63.1
2018-11-25T03:58:42.018Z,63.1
2018-11-25T03:59:32.691Z,63.1
2018-11-25T04:00:21.866Z,63.1
2018-11-25T04:01:12.489Z,63.1
2018-11-25T04:02:02.512Z,63
2018-11-25T04:02:52.034Z,63.1
2018-11-25T04:03:42.367Z,63
2018-11-25T04:04:32.406Z,63
2018-11-25T04:05:22.771Z,63
2018-11-25T04:06:12.811Z,63
2018-11-25T04:07:03.140Z,63
2018-11-25T04:07:52.731Z,63
2018-11-25T04:08:42.176Z,62.9
2018-11-25T04:09:33.586Z,63
2018-11-25T04:10:23.445Z,62.9
2018-11-25T04:11:13.443Z,62.9
2018-11-25T04:12:03.246Z,62.9
2018-11-25T04:12:53.516Z,62.9
2018-11-25T04:13:43.379Z,62.9
2018-11-25T04:14:32.833Z,62.9
2018-11-25T04:15:22.921Z,62.9
2018-11-25T04:16:13.585Z,62.9
2018-11-25T04:17:03.850Z,62.9
2018-11-25T04:17:53.365Z,62.9
2018-11-25T04:18:43.682Z,62.9
2018-11-25T04:19:33.998Z,62.9
2018-11-25T04:20:23.849Z,62.8
2018-11-25T04:21:14.432Z,62.8
2018-11-25T04:22:03.987Z,62.8
2018-11-25T04:22:53.447Z,62.8
2018-11-25T04:23:43.532Z,62.8
2018-11-25T04:24:34.340Z,62.8
2018-11-25T04:25:25.355Z,62.8
2018-11-25T04:26:14.229Z,62.8
2018-11-25T04:27:04.542Z,62.8
2018-11-25T04:27:53.794Z,62.8
2018-11-25T04:28:44.134Z,62.8
2018-11-25T04:29:34.172Z,62.8
2018-11-25T04:30:25.346Z,62.8
2018-11-25T04:31:13.464Z,62.7
2018-11-25T04:32:04.632Z,62.7
2018-11-25T04:32:55.231Z,62.7
2018-11-25T04:33:43.981Z,62.7
2018-11-25T04:34:35.053Z,62.7
2018-11-25T04:35:24.886Z,62.6
2018-11-25T04:36:14.926Z,62.7
2018-11-25T04:37:04.426Z,62.7
2018-11-25T04:54:21.860Z,62.4
2018-11-25T04:55:11.308Z,62.4
2018-11-25T04:56:01.405Z,62.4
2018-11-25T04:56:51.467Z,62.4
2018-11-25T04:57:41.195Z,62.4
2018-11-25T04:58:31.525Z,62.4
2018-11-25T04:59:21.835Z,62.4
2018-11-25T05:00:11.662Z,62.4
2018-11-25T05:01:01.755Z,62.4
2018-11-25T05:01:51.470Z,62.4
2018-11-25T05:02:41.556Z,62.4
2018-11-25T05:03:31.602Z,62.4
2018-11-25T05:04:21.934Z,62.4
2018-11-25T05:05:11.525Z,62.4
2018-11-25T05:06:02.028Z,62.4
2018-11-25T05:06:51.527Z,62.4
2018-11-25T05:07:42.721Z,62.4
2018-11-25T05:08:32.491Z,62.3
2018-11-25T05:09:22.276Z,62.3
2018-11-25T05:10:12.326Z,62.3
2018-11-25T05:11:02.124Z,62.3
2018-11-25T05:11:52.731Z,62.3
2018-11-25T05:12:42.540Z,62.3
2018-11-25T05:13:32.829Z,62.3
2018-11-25T05:14:22.631Z,62.3
2018-11-25T05:15:11.871Z,62.3
2018-11-25T05:16:02.775Z,62.3
2018-11-25T05:16:53.329Z,62.3
2018-11-25T05:17:43.179Z,62.3
2018-11-25T05:18:33.199Z,62.3
2018-11-25T05:19:23.248Z,62.3
2018-11-25T05:20:12.778Z,62.3
2018-11-25T05:21:02.321Z,62.2
2018-11-25T05:21:52.598Z,62.2
2018-11-25T05:22:42.958Z,62.2
2018-11-25T05:23:32.171Z,62.2
2018-11-25T05:24:23.598Z,62.2
2018-11-25T05:25:13.398Z,62.2
2018-11-25T05:26:02.616Z,62.2
2018-11-25T05:26:53.745Z,62.1
2018-11-25T05:27:43.283Z,62.2
2018-11-25T05:28:33.340Z,62.1
2018-11-25T05:29:22.858Z,62.1
2018-11-25T05:30:12.908Z,62.1
2018-11-25T05:31:03.045Z,62.1
2018-11-25T05:31:53.867Z,62.1
2018-11-25T05:32:44.480Z,62.1
2018-11-25T05:33:34.017Z,62.1
2018-11-25T05:34:22.949Z,62.1
2018-11-25T05:35:14.102Z,62.1
2018-11-25T05:36:04.410Z,62.1
2018-11-25T05:36:53.938Z,62.1
2018-11-25T05:37:44.860Z,62.1
2018-11-25T05:38:34.617Z,62.1
2018-11-25T05:39:24.374Z,62.1
2018-11-25T05:40:15.035Z,62.1
2018-11-25T05:41:03.997Z,62
2018-11-25T05:41:54.278Z,62
2018-11-25T05:42:44.899Z,62
2018-11-25T05:43:34.967Z,62
2018-11-25T05:44:24.730Z,62
2018-11-25T05:45:14.825Z,62
2018-11-25T05:46:05.117Z,62
2018-11-25T05:46:54.949Z,61.9
2018-11-25T05:47:45.304Z,61.9
2018-11-25T05:48:35.007Z,61.9
2018-11-25T05:49:24.814Z,61.9
2018-11-25T05:50:15.146Z,61.9
2018-11-25T05:51:05.529Z,61.9
2018-11-25T05:51:54.713Z,61.9
2018-11-25T05:52:45.626Z,61.9
2018-11-25T05:53:35.366Z,61.9
2018-11-25T05:54:25.451Z,61.9
2018-11-25T05:55:16.052Z,61.9
2018-11-25T05:56:05.268Z,61.9
2018-11-25T05:56:54.800Z,61.9
2018-11-25T05:57:45.713Z,61.9
2018-11-25T05:58:35.454Z,61.8
2018-11-25T05:59:26.338Z,61.9
2018-11-25T06:00:15.893Z,61.8
2018-11-25T06:01:06.521Z,61.8
2018-11-25T06:01:56.490Z,61.8
2018-11-25T06:02:46.071Z,61.8
2018-11-25T06:03:36.328Z,61.8
2018-11-25T06:04:26.138Z,61.8
2018-11-25T06:05:15.979Z,61.8
2018-11-25T06:06:05.694Z,61.8
2018-11-25T06:06:56.859Z,61.8
2018-11-25T06:07:45.553Z,61.8
2018-11-25T06:08:36.943Z,61.8
2018-11-25T06:09:26.195Z,61.8
2018-11-25T06:10:16.565Z,61.8
2018-11-25T06:11:06.080Z,61.8
2018-11-25T06:11:57.199Z,61.7
2018-11-25T06:12:46.202Z,61.7
2018-11-25T06:13:36.542Z,61.7
2018-11-25T06:14:26.850Z,61.7
2018-11-25T06:15:16.375Z,61.7
2018-11-25T06:16:06.949Z,61.7
2018-11-25T06:16:58.370Z,61.7
2018-11-25T06:17:47.090Z,61.6
2018-11-25T06:18:36.867Z,61.6
2018-11-25T06:19:27.207Z,61.6
2018-11-25T06:20:17.536Z,61.7
2018-11-25T06:21:06.475Z,61.6
2018-11-25T06:21:57.624Z,61.6
2018-11-25T06:22:47.141Z,61.6
2018-11-25T06:23:37.567Z,61.6
2018-11-25T06:24:27.814Z,61.6
2018-11-25T06:25:18.006Z,61.6
2018-11-25T06:26:07.102Z,61.6
2018-11-25T06:26:57.691Z,61.6
2018-11-25T06:27:48.086Z,61.6
2018-11-25T06:28:37.571Z,61.6
2018-11-25T06:29:27.628Z,61.6
2018-11-25T06:30:18.286Z,61.5
2018-11-25T06:31:07.739Z,61.6
2018-11-25T06:31:57.502Z,61.5
2018-11-25T06:32:47.919Z,61.5
2018-11-25T06:33:38.471Z,61.5
2018-11-25T06:34:28.233Z,61.5
2018-11-25T06:35:19.163Z,61.4
2018-11-25T06:36:08.071Z,61.5
2018-11-25T06:36:58.128Z,61.4
2018-11-25T06:37:48.781Z,61.5
2018-11-25T06:38:37.978Z,61.4
2018-11-25T06:39:28.951Z,61.4
2018-11-25T06:40:18.421Z,61.4
2018-11-25T06:41:08.162Z,61.4
2018-11-25T06:41:58.756Z,61.4
2018-11-25T06:42:49.135Z,61.4
2018-11-25T06:43:38.878Z,61.4
2018-11-25T06:44:29.781Z,61.4
2018-11-25T06:45:19.291Z,61.4
2018-11-25T06:46:09.323Z,61.4
2018-11-25T06:46:58.823Z,61.4
2018-11-25T06:47:49.173Z,61.4
2018-11-25T06:48:39.557Z,61.4
2018-11-25T06:49:29.370Z,61.4
2018-11-25T06:50:19.375Z,61.3
2018-11-25T06:51:08.849Z,61.3
2018-11-25T06:51:59.489Z,61.3
2018-11-25T06:52:48.985Z,61.3
2018-11-25T06:53:39.102Z,61.3
2018-11-25T06:54:29.612Z,61.3
2018-11-25T06:55:19.698Z,61.3
2018-11-25T06:56:09.205Z,61.3
2018-11-25T06:57:00.541Z,61.3
2018-11-25T06:57:50.214Z,61.3
2018-11-25T06:58:39.664Z,61.3
2018-11-25T06:59:30.246Z,61.3
2018-11-25T07:00:20.432Z,61.3
2018-11-25T07:01:09.284Z,61.3
2018-11-25T07:01:59.867Z,61.2
2018-11-25T07:02:50.492Z,61.2
2018-11-25T07:03:40.862Z,61.2
2018-11-25T07:04:30.636Z,61.2
2018-11-25T07:05:20.114Z,61.2
2018-11-25T07:06:10.746Z,61.2
2018-11-25T07:06:59.944Z,61.1
2018-11-25T07:07:50.590Z,61.1
2018-11-25T07:08:40.589Z,61.1
2018-11-25T07:09:31.232Z,61.1
2018-11-25T07:10:20.217Z,61.1
2018-11-25T07:11:09.964Z,61.1
2018-11-25T07:12:01.141Z,61.1
2018-11-25T07:12:50.644Z,61.1
2018-11-25T07:13:41.336Z,61.1
2018-11-25T07:14:31.829Z,61.1
2018-11-25T07:15:21.691Z,61.1
2018-11-25T07:16:10.629Z,61.1
2018-11-25T07:17:01.191Z,61.1
2018-11-25T07:17:51.289Z,61.1
2018-11-25T07:18:41.391Z,61.1
2018-11-25T07:19:30.275Z,61
2018-11-25T07:20:21.183Z,61
2018-11-25T07:21:10.711Z,61
2018-11-25T07:22:01.326Z,61
2018-11-25T07:22:52.165Z,61
2018-11-25T07:23:41.378Z,61
2018-11-25T07:24:31.980Z,61
2018-11-25T07:25:21.840Z,61
2018-11-25T07:26:11.923Z,60.9
2018-11-25T07:27:01.678Z,60.9
2018-11-25T07:27:51.675Z,60.9
2018-11-25T07:28:42.272Z,60.9
2018-11-25T07:29:32.065Z,60.9
2018-11-25T07:30:22.682Z,60.9
2018-11-25T07:31:11.872Z,60.9
2018-11-25T07:32:01.970Z,60.9
2018-11-25T07:32:52.680Z,60.9
2018-11-25T07:33:42.382Z,60.9
2018-11-25T07:34:32.960Z,60.9
2018-11-25T07:35:22.198Z,60.9
2018-11-25T07:36:12.525Z,60.9
2018-11-25T07:37:02.328Z,60.9
2018-11-25T07:37:52.663Z,60.8
2018-11-25T07:38:42.942Z,60.8
2018-11-25T07:39:32.761Z,60.8
2018-11-25T07:40:23.364Z,60.8
2018-11-25T07:41:12.884Z,60.8
2018-11-25T07:42:02.949Z,60.8
2018-11-25T07:42:53.302Z,60.8
2018-11-25T07:43:42.756Z,60.8
2018-11-25T07:44:32.574Z,60.8
2018-11-25T07:45:32.474Z,60.8
2018-11-25T07:46:13.304Z,60.8
2018-11-25T07:47:03.274Z,60.8
2018-11-25T07:47:53.350Z,60.8
2018-11-25T07:48:43.949Z,60.7
2018-11-25T07:49:32.911Z,60.7
2018-11-25T07:50:23.830Z,60.7
2018-11-25T07:51:13.032Z,60.7
2018-11-25T07:52:03.882Z,60.7
2018-11-25T07:52:53.751Z,60.7
2018-11-25T07:53:43.016Z,60.6
2018-11-25T07:54:34.096Z,60.6
2018-11-25T07:55:24.433Z,60.6
2018-11-25T07:56:13.939Z,60.6
2018-11-25T07:57:04.011Z,60.6
2018-11-25T07:57:53.798Z,60.6
2018-11-25T07:58:44.373Z,60.6
2018-11-25T07:59:33.613Z,60.6
2018-11-25T08:00:24.358Z,60.6
2018-11-25T08:01:13.740Z,60.6
2018-11-25T08:02:04.946Z,60.6
2018-11-25T08:02:54.681Z,60.6
2018-11-25T08:03:44.173Z,60.6
2018-11-25T08:04:33.966Z,60.6
2018-11-25T08:05:24.829Z,60.6
2018-11-25T08:06:14.638Z,60.5
2018-11-25T08:07:04.928Z,60.5
2018-11-25T08:07:54.743Z,60.6
2018-11-25T08:08:44.800Z,60.5
2018-11-25T08:09:35.195Z,60.5
2018-11-25T08:10:24.921Z,60.5
2018-11-25T08:11:14.962Z,60.5
2018-11-25T08:12:05.034Z,60.4
2018-11-25T08:12:54.863Z,60.4
2018-11-25T08:13:45.170Z,60.4
2018-11-25T08:14:34.947Z,60.4
2018-11-25T08:15:25.309Z,60.4
2018-11-25T08:16:15.850Z,60.4
2018-11-25T08:17:05.649Z,60.4
2018-11-25T08:17:55.269Z,60.4
2018-11-25T08:18:45.212Z,60.4
2018-11-25T08:19:35.823Z,60.4
2018-11-25T08:20:25.364Z,60.4
2018-11-25T08:21:15.176Z,60.4
2018-11-25T08:22:05.195Z,60.4
2018-11-25T08:22:55.786Z,60.3
2018-11-25T08:23:45.562Z,60.3
2018-11-25T08:24:35.904Z,60.3
2018-11-25T08:25:26.256Z,60.3
2018-11-25T08:26:16.061Z,60.3
2018-11-25T08:27:05.522Z,60.3
2018-11-25T08:27:55.391Z,60.3
2018-11-25T08:28:45.452Z,60.3
2018-11-25T08:29:35.764Z,60.3
2018-11-25T08:30:25.558Z,60.3
2018-11-25T08:31:15.896Z,60.3
2018-11-25T08:32:06.019Z,60.3
2018-11-25T08:32:56.490Z,60.3
2018-11-25T08:33:46.339Z,60.2
2018-11-25T08:34:36.618Z,60.2
2018-11-25T08:35:27.066Z,60.2
2018-11-25T08:36:16.733Z,60.2
2018-11-25T08:37:07.049Z,60.2
2018-11-25T08:37:56.003Z,60.2
2018-11-25T08:38:47.183Z,60.2
2018-11-25T08:39:36.413Z,60.2
2018-11-25T08:40:27.633Z,60.1
2018-11-25T08:41:17.060Z,60.1
2018-11-25T08:42:07.448Z,60.1
2018-11-25T08:42:56.940Z,60.1
2018-11-25T08:43:46.950Z,60.1
2018-11-25T08:44:37.304Z,60.1
2018-11-25T08:45:27.350Z,60.1
2018-11-25T08:46:17.992Z,60.1
2018-11-25T08:47:07.190Z,60.1
2018-11-25T08:47:57.850Z,60.1
2018-11-25T08:48:47.025Z,60.1
2018-11-25T08:49:37.673Z,60.1
2018-11-25T08:50:27.496Z,60
2018-11-25T08:51:18.042Z,60
2018-11-25T08:52:07.277Z,60
2018-11-25T08:52:58.444Z,60
2018-11-25T09:08:48.043Z,59.8
2018-11-25T09:09:38.090Z,59.8
2018-11-25T09:10:28.148Z,59.8
2018-11-25T09:11:18.160Z,59.8
2018-11-25T09:12:07.944Z,59.8
2018-11-25T09:12:59.551Z,59.8
2018-11-25T09:13:48.491Z,59.8
2018-11-25T09:14:38.111Z,59.8
2018-11-25T09:15:27.652Z,59.8
2018-11-25T09:16:18.293Z,59.8
2018-11-25T09:17:08.838Z,59.8
2018-11-25T09:17:58.461Z,59.8
2018-11-25T09:18:47.828Z,59.7
2018-11-25T09:19:38.443Z,59.7
2018-11-25T09:20:28.788Z,59.7
2018-11-25T09:21:18.858Z,59.7
2018-11-25T09:22:08.638Z,59.7
2018-11-25T09:22:58.968Z,59.7
2018-11-25T09:23:49.068Z,59.7
2018-11-25T09:24:38.242Z,59.7
2018-11-25T09:25:28.887Z,59.6
2018-11-25T09:26:19.188Z,59.6
2018-11-25T09:27:08.700Z,59.6
2018-11-25T09:27:59.030Z,59.6
2018-11-25T09:28:48.564Z,59.6
2018-11-25T09:29:39.715Z,59.6
2018-11-25T09:30:29.502Z,59.6
2018-11-25T09:31:19.317Z,59.6
2018-11-25T09:32:09.077Z,59.6
2018-11-25T09:32:59.184Z,59.6
2018-11-25T09:33:49.277Z,59.6
2018-11-25T09:34:39.230Z,59.6
2018-11-25T09:35:29.574Z,59.6
2018-11-25T09:36:19.335Z,59.5
2018-11-25T09:37:09.404Z,59.5
2018-11-25T09:37:59.741Z,59.5
2018-11-25T09:38:50.099Z,59.5
2018-11-25T09:39:39.569Z,59.4
2018-11-25T09:40:30.242Z,59.5
2018-11-25T09:41:19.419Z,59.4
2018-11-25T09:42:09.736Z,59.4
2018-11-25T09:43:00.151Z,59.4
2018-11-25T09:43:49.861Z,59.4
2018-11-25T09:44:39.644Z,59.4
2018-11-25T09:45:30.856Z,59.4
2018-11-25T09:46:20.595Z,59.4
2018-11-25T09:47:10.697Z,59.4
2018-11-25T09:48:00.423Z,59.4
2018-11-25T09:48:51.096Z,59.4
2018-11-25T09:49:40.252Z,59.4
2018-11-25T09:50:30.341Z,59.4
2018-11-25T09:51:20.964Z,59.4
2018-11-25T09:52:10.483Z,59.3
2018-11-25T09:53:01.321Z,59.3
2018-11-25T09:53:50.286Z,59.3
2018-11-25T09:54:40.961Z,59.3
2018-11-25T09:55:30.965Z,59.3
2018-11-25T09:56:21.014Z,59.3
2018-11-25T09:57:10.531Z,59.3
2018-11-25T09:58:00.858Z,59.3
2018-11-25T09:58:50.358Z,59.3
2018-11-25T09:59:41.231Z,59.3
2018-11-25T10:00:31.033Z,59.3
2018-11-25T10:01:21.104Z,59.3
2018-11-25T10:02:10.886Z,59.3
2018-11-25T10:03:01.512Z,59.2
2018-11-25T10:03:51.268Z,59.2
2018-11-25T10:04:41.566Z,59.2
2018-11-25T10:05:31.113Z,59.2
2018-11-25T10:06:21.727Z,59.2
2018-11-25T10:07:12.051Z,59.2
2018-11-25T10:08:01.841Z,59.1
2018-11-25T10:08:51.617Z,59.1
2018-11-25T10:09:41.413Z,59.1
2018-11-25T10:10:32.279Z,59.1
2018-11-25T10:11:22.585Z,59.1
2018-11-25T10:12:11.917Z,59.1
2018-11-25T10:13:02.191Z,59.1
2018-11-25T10:13:51.405Z,59.1
2018-11-25T10:14:42.308Z,59.1
2018-11-25T10:15:32.695Z,59.1
2018-11-25T10:16:22.137Z,59.1
2018-11-25T10:17:12.459Z,59.1
2018-11-25T10:18:03.578Z,59
2018-11-25T10:18:52.029Z,59
2018-11-25T10:19:41.831Z,59
2018-11-25T10:20:33.048Z,59
2018-11-25T10:21:22.490Z,59
2018-11-25T10:22:12.829Z,59
2018-11-25T10:23:02.654Z,58.9
2018-11-25T10:23:52.394Z,58.9
2018-11-25T10:24:43.269Z,58.9
2018-11-25T10:25:32.608Z,58.9
2018-11-25T10:26:23.119Z,58.9
2018-11-25T10:27:12.611Z,58.9
2018-11-25T10:28:02.998Z,58.9
2018-11-25T10:28:52.778Z,58.9
2018-11-25T10:29:43.329Z,58.9
2018-11-25T10:30:33.416Z,58.9
2018-11-25T10:31:23.462Z,58.9
2018-11-25T10:32:13.248Z,58.9
2018-11-25T10:33:03.695Z,58.9
2018-11-25T10:33:53.971Z,58.9
2018-11-25T10:34:43.968Z,58.8
2018-11-25T10:35:34.023Z,58.8
2018-11-25T10:36:24.078Z,58.8
2018-11-25T10:37:13.322Z,58.8
2018-11-25T10:38:03.664Z,58.8
2018-11-25T10:38:53.450Z,58.8
2018-11-25T10:39:44.327Z,58.8
2018-11-25T10:40:33.293Z,58.8
2018-11-25T10:41:24.161Z,58.8
2018-11-25T10:42:14.275Z,58.8
2018-11-25T10:43:04.283Z,58.8
2018-11-25T10:43:54.884Z,58.8
2018-11-25T10:44:44.122Z,58.8
2018-11-25T10:45:33.892Z,58.8
2018-11-25T10:46:24.235Z,58.7
2018-11-25T10:47:14.295Z,58.7
2018-11-25T10:48:04.647Z,58.7
2018-11-25T10:48:54.680Z,58.7
2018-11-25T10:49:44.185Z,58.7
2018-11-25T10:50:34.812Z,58.6
2018-11-25T10:51:24.575Z,58.6
2018-11-25T10:52:14.365Z,58.6
2018-11-25T10:53:04.438Z,58.6
2018-11-25T10:53:55.570Z,58.6
2018-11-25T10:54:45.072Z,58.6
2018-11-25T10:55:34.654Z,58.6
2018-11-25T11:01:25.302Z,58.5
2018-11-25T11:02:15.332Z,58.5
2018-11-25T11:03:05.666Z,58.5
2018-11-25T11:03:54.900Z,58.5
2018-11-25T11:04:45.503Z,58.5
2018-11-25T11:05:36.166Z,58.5
2018-11-25T11:06:25.613Z,58.5
2018-11-25T11:07:15.403Z,58.4
2018-11-25T11:08:04.944Z,58.4
2018-11-25T11:08:56.068Z,58.4
2018-11-25T11:09:46.408Z,58.4
2018-11-25T11:10:36.253Z,58.4
2018-11-25T11:11:26.581Z,58.4
2018-11-25T11:12:16.592Z,58.4
2018-11-25T11:13:05.853Z,58.4
2018-11-25T11:13:55.886Z,58.4
2018-11-25T11:14:45.933Z,58.4
2018-11-25T11:15:36.533Z,58.4
2018-11-25T11:16:26.055Z,58.4
2018-11-25T11:17:16.652Z,58.3
2018-11-25T11:18:07.077Z,58.3
2018-11-25T11:18:56.505Z,58.3
2018-11-25T11:19:46.578Z,58.3
2018-11-25T11:20:37.145Z,58.3
2018-11-25T11:21:27.803Z,58.3
2018-11-25T11:22:17.570Z,58.3
2018-11-25T11:23:07.330Z,58.3
2018-11-25T11:23:56.860Z,58.3
2018-11-25T11:24:47.458Z,58.3
2018-11-25T11:25:37.272Z,58.3
2018-11-25T11:26:27.035Z,58.3
2018-11-25T11:27:17.377Z,58.2
2018-11-25T11:28:07.405Z,58.2
2018-11-25T11:28:58.017Z,58.2
2018-11-25T11:29:47.253Z,58.2
2018-11-25T11:30:37.332Z,58.2
2018-11-25T11:31:27.649Z,58.2
2018-11-25T11:32:17.704Z,58.1
2018-11-25T11:33:07.236Z,58.1
2018-11-25T11:33:58.339Z,58.1
2018-11-25T11:34:47.614Z,58.1
2018-11-25T11:35:38.502Z,58.1
2018-11-25T11:36:27.997Z,58.1
2018-11-25T11:37:18.069Z,58.1
2018-11-25T11:38:08.386Z,58.1
2018-11-25T11:38:57.968Z,58.1
2018-11-25T11:39:48.487Z,58.1
2018-11-25T11:40:38.579Z,58.1
2018-11-25T11:41:28.354Z,58.1
2018-11-25T11:42:18.691Z,58
2018-11-25T11:43:08.193Z,58.1
2018-11-25T11:43:58.244Z,58
2018-11-25T11:44:48.901Z,58
2018-11-25T11:45:38.454Z,58
2018-11-25T11:46:28.704Z,58
2018-11-25T11:47:18.491Z,58
2018-11-25T11:48:08.813Z,57.9
2018-11-25T11:48:59.412Z,57.9
2018-11-25T11:49:48.926Z,57.9
2018-11-25T11:50:39.503Z,57.9
2018-11-25T11:51:31.002Z,57.9
2018-11-25T11:52:19.375Z,57.9
2018-11-25T11:53:09.698Z,57.9
2018-11-25T11:53:59.233Z,57.9
2018-11-25T11:54:49.010Z,57.9
2018-11-25T11:55:39.901Z,57.9
2018-11-25T11:56:29.675Z,57.9
2018-11-25T11:57:19.449Z,57.9
2018-11-25T11:58:09.760Z,57.9
2018-11-25T11:58:59.568Z,57.9
2018-11-25T11:59:49.637Z,57.8
2018-11-25T12:00:39.967Z,57.8
2018-11-25T12:01:28.929Z,57.8
2018-11-25T12:02:19.312Z,57.8
2018-11-25T12:03:09.375Z,57.8
2018-11-25T12:08:59.984Z,57.7